Time;durP1;ratioP1;P1;durP2;ratioP2;P2;SDS_P1;SDS_P2;PMS_P1;PMS_P2;Temp;Humidity;BMP_temperature;BMP_pressure;BME280_temperature;BME280_humidity;BME280_pressure;Samples;Min_cycle;Max_cycle;Signal;HPM_P1;HPM_P2
2023/07/27 00:02:07;;;;;;;6.50;3.00;;;12.30;99.90;;;;;;5069759;28;20575;-64
2023/07/27 00:04:33;;;;;;;4.32;2.53;;;12.30;99.90;;;;;;5054495;28;20055;-65
2023/07/27 00:06:59;;;;;;;4.00;2.67;;;12.30;99.90;;;;;;5072749;28;20401;-65
2023/07/27 00:09:25;;;;;;;6.22;2.55;;;12.20;99.90;;;;;;5072460;28;20047;-65
2023/07/27 00:11:51;;;;;;;6.18;2.85;;;12.20;99.90;;;;;;5054751;28;20463;-65
2023/07/27 00:14:17;;;;;;;4.95;2.85;;;12.20;99.90;;;;;;5037435;28;20040;-65
2023/07/27 00:16:43;;;;;;;7.78;3.42;;;12.10;99.90;;;;;;5072052;28;20060;-65
2023/07/27 00:19:09;;;;;;;5.22;3.20;;;12.10;99.90;;;;;;5055170;28;20051;-64
2023/07/27 00:21:35;;;;;;;4.93;2.25;;;12.10;99.90;;;;;;5072247;28;20044;-65
2023/07/27 00:24:00;;;;;;;7.72;2.83;;;12.10;99.90;;;;;;5072609;28;20450;-65
2023/07/27 00:26:26;;;;;;;4.32;2.50;;;12.10;99.90;;;;;;5071435;28;20036;-65
2023/07/27 00:28:52;;;;;;;8.65;3.08;;;12.10;99.90;;;;;;5054620;28;20111;-65
2023/07/27 00:31:18;;;;;;;4.55;2.72;;;12.10;99.90;;;;;;5053545;28;20182;-65
2023/07/27 00:33:43;;;;;;;4.18;2.50;;;12.00;99.90;;;;;;5072427;28;20126;-64
2023/07/27 00:36:09;;;;;;;5.80;3.00;;;12.10;99.90;;;;;;5072421;28;20397;-64
2023/07/27 00:38:34;;;;;;;3.33;2.53;;;12.00;99.90;;;;;;5060428;28;20060;-65
2023/07/27 00:41:00;;;;;;;3.58;2.35;;;12.00;99.90;;;;;;5062651;28;20061;-65
2023/07/27 00:43:26;;;;;;;8.70;2.55;;;12.00;99.90;;;;;;5040132;28;20056;-65
2023/07/27 00:45:53;;;;;;;5.45;2.63;;;11.90;99.90;;;;;;5052475;28;20495;-65
2023/07/27 00:48:20;;;;;;;4.80;3.03;;;11.90;99.90;;;;;;5046801;28;20097;-65
2023/07/27 00:50:47;;;;;;;6.47;3.17;;;11.80;99.90;;;;;;5057322;28;20124;-65
2023/07/27 00:53:14;;;;;;;5.80;3.22;;;11.90;99.90;;;;;;5066303;28;20049;-65
2023/07/27 00:55:41;;;;;;;2.95;2.65;;;11.90;99.90;;;;;;5045360;28;20040;-64
2023/07/27 00:58:07;;;;;;;4.88;3.20;;;11.80;99.90;;;;;;5051232;28;20053;-64
2023/07/27 01:00:33;;;;;;;6.78;3.22;;;11.90;99.90;;;;;;5068636;28;20040;-64
2023/07/27 01:03:00;;;;;;;4.32;2.90;;;11.90;99.90;;;;;;5066872;28;20041;-64
2023/07/27 01:05:27;;;;;;;5.53;3.05;;;11.90;99.90;;;;;;5068457;28;20084;-64
2023/07/27 01:07:53;;;;;;;5.80;2.90;;;11.90;99.90;;;;;;5068795;28;20040;-64
2023/07/27 01:10:23;;;;;;;4.35;3.10;;;11.90;99.90;;;;;;5069033;28;20055;-64
2023/07/27 01:13:04;;;;;;;9.48;3.78;;;12.00;99.90;;;;;;5068022;28;20053;-64
2023/07/27 01:15:34;;;;;;;8.15;3.38;;;12.00;99.90;;;;;;5050447;28;20048;-64
2023/07/27 01:18:26;;;;;;;;;;;12.10;99.90;;;;;;5069195;28;20105;-64
2023/07/27 01:21:17;;;;;;;4.03;3.03;;;12.10;99.90;;;;;;5012585;28;19924;-64
2023/07/27 01:24:04;;;;;;;4.82;3.45;;;12.10;99.90;;;;;;5068350;28;20102;-64
2023/07/27 01:27:00;;;;;;;7.15;3.42;;;12.10;99.90;;;;;;5068156;28;20051;-64
2023/07/27 01:29:47;;;;;;;6.93;4.13;;;12.20;99.90;;;;;;5068528;28;20498;-64
2023/07/27 01:32:15;;;;;;;5.50;3.50;;;12.20;99.90;;;;;;5059327;28;20045;-64
2023/07/27 01:34:43;;;;;;;6.50;3.72;;;12.20;99.90;;;;;;5064906;28;20040;-64
2023/07/27 01:37:13;;;;;;;5.13;3.92;;;12.20;99.90;;;;;;5068446;28;20197;-64
2023/07/27 01:39:43;;;;;;;8.73;3.70;;;12.30;99.90;;;;;;5067833;28;20078;-64
2023/07/27 01:42:13;;;;;;;4.85;3.53;;;12.30;99.90;;;;;;5068697;28;20371;-64
2023/07/27 01:44:40;;;;;;;6.32;3.70;;;12.30;99.90;;;;;;5067919;28;20387;-64
2023/07/27 01:47:08;;;;;;;7.43;4.05;;;12.30;99.90;;;;;;5067952;28;20090;-64
2023/07/27 01:49:37;;;;;;;5.97;3.85;;;12.40;99.90;;;;;;5050080;28;20044;-64
2023/07/27 01:52:04;;;;;;;5.78;3.80;;;12.30;99.90;;;;;;5068152;28;20118;-64
2023/07/27 01:54:32;;;;;;;7.90;3.40;;;12.30;99.90;;;;;;5068233;28;20037;-64
2023/07/27 01:56:58;;;;;;;5.45;3.40;;;12.30;99.90;;;;;;5033500;28;20040;-64
2023/07/27 01:59:25;;;;;;;8.75;4.13;;;12.30;99.90;;;;;;5068158;28;20047;-64
2023/07/27 02:01:51;;;;;;;5.32;3.72;;;12.40;99.90;;;;;;5066697;28;20255;-64
2023/07/27 02:04:17;;;;;;;11.55;3.88;;;12.30;99.90;;;;;;5067830;28;20068;-65
2023/07/27 02:06:45;;;;;;;10.80;3.90;;;12.40;99.90;;;;;;5018775;28;20029;-64
2023/07/27 02:09:10;;;;;;;6.05;3.60;;;12.30;99.90;;;;;;5066751;28;20032;-64
2023/07/27 02:11:39;;;;;;;5.07;3.83;;;12.30;99.90;;;;;;5066971;28;20105;-64
2023/07/27 02:14:16;;;;;;;8.48;4.10;;;12.30;99.90;;;;;;5067837;28;20048;-64
2023/07/27 02:16:57;;;;;;;7.75;4.13;;;12.30;99.90;;;;;;5049508;28;20174;-64
2023/07/27 02:19:32;;;;;;;7.03;3.42;;;12.30;99.90;;;;;;5067452;28;20047;-64
2023/07/27 02:21:59;;;;;;;5.30;3.58;;;12.30;99.90;;;;;;5066971;28;20110;-64
2023/07/27 02:24:25;;;;;;;5.90;4.03;;;12.30;99.90;;;;;;5049867;28;20060;-64
2023/07/27 02:26:50;;;;;;;6.22;3.83;;;12.30;99.90;;;;;;5065145;28;20080;-64
2023/07/27 02:29:17;;;;;;;6.93;3.72;;;12.40;99.90;;;;;;5062077;28;20457;-64
2023/07/27 02:31:42;;;;;;;5.35;3.47;;;12.40;99.90;;;;;;5027044;28;20048;-65
2023/07/27 02:34:09;;;;;;;8.75;3.97;;;12.40;99.90;;;;;;5045035;28;20045;-64
2023/07/27 02:36:35;;;;;;;6.43;3.55;;;12.40;99.90;;;;;;5067193;28;20043;-64
2023/07/27 02:39:01;;;;;;;4.68;3.53;;;12.40;99.90;;;;;;5067371;28;20056;-64
2023/07/27 02:41:26;;;;;;;7.60;3.30;;;12.40;99.90;;;;;;5032392;28;20056;-64
2023/07/27 02:43:52;;;;;;;4.53;3.33;;;12.40;99.90;;;;;;5048608;28;20040;-64
2023/07/27 02:46:18;;;;;;;8.57;3.72;;;12.30;99.90;;;;;;5067037;28;20147;-64
2023/07/27 02:48:44;;;;;;;4.43;3.20;;;12.40;99.90;;;;;;5066576;28;20040;-64
2023/07/27 02:51:09;;;;;;;7.72;3.97;;;12.40;99.90;;;;;;5067164;28;20587;-64
2023/07/27 02:53:35;;;;;;;5.13;3.30;;;12.40;99.90;;;;;;5066467;28;20048;-64
2023/07/27 02:56:03;;;;;;;6.85;3.72;;;12.40;99.90;;;;;;5031840;28;20052;-64
2023/07/27 02:58:29;;;;;;;8.90;3.42;;;12.40;99.90;;;;;;5066898;28;20070;-64
2023/07/27 03:00:59;;;;;;;7.88;3.58;;;12.40;99.90;;;;;;5066722;28;20040;-64
2023/07/27 03:03:26;;;;;;;4.07;3.05;;;12.50;99.90;;;;;;5048413;28;20078;-64
2023/07/27 03:05:59;;;;;;;7.63;3.55;;;12.40;99.90;;;;;;5065100;28;20040;-64
2023/07/27 03:08:26;;;;;;;3.70;3.20;;;12.40;99.90;;;;;;5066820;28;20036;-64
2023/07/27 03:10:52;;;;;;;5.45;3.60;;;12.50;99.90;;;;;;5065851;28;20039;-65
2023/07/27 03:13:17;;;;;;;5.53;3.72;;;12.50;99.90;;;;;;5066807;28;20044;-65
2023/07/27 03:15:43;;;;;;;6.63;3.88;;;12.50;99.90;;;;;;5065450;28;20047;-64
2023/07/27 03:18:09;;;;;;;6.38;4.00;;;12.50;99.90;;;;;;5066833;28;20135;-64
2023/07/27 03:20:41;;;;;;;7.32;3.92;;;12.40;99.90;;;;;;5048540;28;20048;-64
2023/07/27 03:23:08;;;;;;;7.03;3.15;;;12.50;99.90;;;;;;5066371;28;20398;-64
2023/07/27 03:25:35;;;;;;;8.65;3.90;;;12.40;99.90;;;;;;5066140;28;20040;-65
2023/07/27 03:28:02;;;;;;;5.25;3.63;;;12.50;99.90;;;;;;5047896;28;20078;-64
2023/07/27 03:30:28;;;;;;;7.97;3.60;;;12.50;99.90;;;;;;5066576;28;20048;-64
2023/07/27 03:32:53;;;;;;;5.90;3.90;;;12.50;99.90;;;;;;5065235;28;20052;-64
2023/07/27 03:35:19;;;;;;;6.15;3.33;;;12.50;99.90;;;;;;5048907;28;20141;-64
2023/07/27 03:37:45;;;;;;;5.40;3.70;;;12.50;99.90;;;;;;5065881;28;20056;-64
2023/07/27 03:40:11;;;;;;;5.72;4.00;;;12.50;99.90;;;;;;5065857;28;20086;-64
2023/07/27 03:42:36;;;;;;;6.10;3.88;;;12.50;99.90;;;;;;5065853;28;20053;-64
2023/07/27 03:45:03;;;;;;;6.05;3.40;;;12.60;99.90;;;;;;5065609;28;20051;-64
2023/07/27 03:47:28;;;;;;;5.53;3.28;;;12.60;99.90;;;;;;5047596;28;20041;-64
2023/07/27 03:49:54;;;;;;;6.50;3.90;;;12.60;99.90;;;;;;5065794;28;20044;-64
2023/07/27 03:52:20;;;;;;;7.28;3.83;;;12.70;99.90;;;;;;5066525;28;20110;-64
2023/07/27 03:54:45;;;;;;;7.88;3.38;;;12.70;99.90;;;;;;5066486;28;20588;-64
2023/07/27 03:57:11;;;;;;;7.65;3.55;;;12.70;99.90;;;;;;5065451;28;20048;-64
2023/07/27 03:59:37;;;;;;;5.38;3.80;;;12.70;99.90;;;;;;5066252;28;20119;-65
2023/07/27 04:02:03;;;;;;;4.68;3.38;;;12.70;99.90;;;;;;5065099;28;20776;-64
2023/07/27 04:04:28;;;;;;;10.88;4.10;;;12.70;99.90;;;;;;5047889;28;20041;-64
2023/07/27 04:06:54;;;;;;;6.38;3.75;;;12.70;99.90;;;;;;5047637;28;20053;-64
2023/07/27 04:09:20;;;;;;;4.82;3.40;;;12.70;99.90;;;;;;5065693;28;20561;-64
2023/07/27 04:11:45;;;;;;;6.75;3.53;;;12.70;99.90;;;;;;5066098;28;20078;-64
2023/07/27 04:14:11;;;;;;;10.05;4.28;;;12.80;99.90;;;;;;5065846;28;20052;-64
2023/07/27 04:16:37;;;;;;;8.43;3.83;;;12.80;99.90;;;;;;5047865;28;20060;-64
2023/07/27 04:19:02;;;;;;;6.43;3.63;;;12.80;99.90;;;;;;5065154;28;20047;-64
2023/07/27 04:21:28;;;;;;;8.70;4.03;;;12.80;99.90;;;;;;5066038;28;20474;-64
2023/07/27 04:23:54;;;;;;;7.72;3.60;;;12.90;99.90;;;;;;5065721;28;20044;-64
2023/07/27 04:26:20;;;;;;;6.65;3.67;;;12.80;99.90;;;;;;5065848;28;20474;-64
2023/07/27 04:28:45;;;;;;;6.72;3.78;;;12.90;99.90;;;;;;5065442;28;20102;-64
2023/07/27 04:31:11;;;;;;;6.10;3.25;;;13.00;99.90;;;;;;5064694;28;20041;-63
2023/07/27 04:33:37;;;;;;;4.90;4.30;;;12.90;99.90;;;;;;5069515;28;20055;-64
2023/07/27 04:36:03;;;;;;;13.35;3.58;;;13.00;99.90;;;;;;5069502;28;20151;-64
2023/07/27 04:38:29;;;;;;;3.47;3.10;;;13.00;99.90;;;;;;5069526;28;20048;-63
2023/07/27 04:40:55;;;;;;;7.47;4.38;;;13.10;99.90;;;;;;5069308;28;20148;-64
2023/07/27 04:43:20;;;;;;;5.10;3.80;;;13.10;99.90;;;;;;5069215;28;20190;-64
2023/07/27 04:45:46;;;;;;;4.10;3.35;;;13.10;99.90;;;;;;5051328;28;20048;-64
2023/07/27 04:48:12;;;;;;;6.50;3.33;;;13.10;99.90;;;;;;5051138;28;20036;-64
2023/07/27 04:50:38;;;;;;;4.50;3.72;;;13.10;99.90;;;;;;5050749;28;20056;-64
2023/07/27 04:53:03;;;;;;;5.53;3.90;;;13.20;99.90;;;;;;5069289;28;20075;-64
2023/07/27 04:55:29;;;;;;;7.55;4.32;;;13.20;99.90;;;;;;5051479;28;20043;-64
2023/07/27 04:57:55;;;;;;;5.97;4.07;;;13.20;99.90;;;;;;5069377;28;20044;-64
2023/07/27 05:00:21;;;;;;;7.57;3.75;;;13.20;99.90;;;;;;5068598;28;20041;-63
2023/07/27 05:02:46;;;;;;;8.40;4.28;;;13.30;99.90;;;;;;5065466;28;20036;-64
2023/07/27 05:05:12;;;;;;;7.95;3.92;;;13.40;99.90;;;;;;5068367;28;20036;-63
2023/07/27 05:07:38;;;;;;;8.48;4.22;;;13.40;99.90;;;;;;5034415;28;20084;-64
2023/07/27 05:10:04;;;;;;;8.02;4.13;;;13.40;99.90;;;;;;5068464;28;20129;-64
2023/07/27 05:12:32;;;;;;;4.55;4.10;;;13.50;99.90;;;;;;5068766;28;20056;-64
2023/07/27 05:14:58;;;;;;;6.55;3.97;;;13.50;99.90;;;;;;5069069;28;20434;-64
2023/07/27 05:17:25;;;;;;;13.55;4.13;;;13.50;99.90;;;;;;5050709;28;20059;-64
2023/07/27 05:19:53;;;;;;;6.32;4.05;;;13.50;99.90;;;;;;5068785;28;20502;-64
2023/07/27 05:22:19;;;;;;;4.38;3.63;;;13.50;99.90;;;;;;5068269;28;20072;-64
2023/07/27 05:24:44;;;;;;;4.97;3.88;;;13.50;99.90;;;;;;5050484;28;20056;-64
2023/07/27 05:27:10;;;;;;;6.18;3.63;;;13.60;99.90;;;;;;5068146;28;20130;-64
2023/07/27 05:29:38;;;;;;;4.10;3.72;;;13.60;99.90;;;;;;5068660;28;20058;-64
2023/07/27 05:32:04;;;;;;;5.25;3.25;;;13.60;99.90;;;;;;5066167;28;20045;-64
2023/07/27 05:34:30;;;;;;;4.95;3.70;;;13.60;99.90;;;;;;5050284;28;20398;-64
2023/07/27 05:36:56;;;;;;;4.68;3.97;;;13.60;99.90;;;;;;5068573;28;20050;-64
2023/07/27 05:39:21;;;;;;;4.05;3.50;;;13.70;99.90;;;;;;5068188;28;20052;-64
2023/07/27 05:41:47;;;;;;;5.38;4.05;;;13.70;99.90;;;;;;5049932;28;20060;-64
2023/07/27 05:44:13;;;;;;;5.03;3.45;;;13.70;99.90;;;;;;5067895;28;20131;-64
2023/07/27 05:46:38;;;;;;;8.95;3.95;;;13.70;99.90;;;;;;5068394;28;20044;-64
2023/07/27 05:49:05;;;;;;;6.03;3.70;;;13.80;99.90;;;;;;5067325;28;20055;-64
2023/07/27 05:51:31;;;;;;;7.07;3.53;;;13.70;99.90;;;;;;5068135;28;20040;-64
2023/07/27 05:53:57;;;;;;;8.70;3.92;;;13.80;99.90;;;;;;5068558;28;20028;-64
2023/07/27 05:56:23;;;;;;;7.18;3.38;;;13.80;99.90;;;;;;5067846;28;20041;-64
2023/07/27 05:58:48;;;;;;;5.45;3.78;;;13.80;99.90;;;;;;5067960;28;20289;-64
2023/07/27 06:01:16;;;;;;;5.88;3.88;;;13.80;99.90;;;;;;5065613;28;20071;-64
2023/07/27 06:03:42;;;;;;;5.93;3.58;;;13.80;99.90;;;;;;5066956;28;20425;-64
2023/07/27 06:06:08;;;;;;;4.65;3.78;;;13.80;99.90;;;;;;5040140;28;20045;-64
2023/07/27 06:08:33;;;;;;;4.03;3.33;;;13.80;99.90;;;;;;5063851;28;20040;-65
2023/07/27 06:11:01;;;;;;;8.63;3.90;;;13.80;99.90;;;;;;5049610;28;20049;-65
2023/07/27 06:13:27;;;;;;;6.35;3.60;;;13.80;99.90;;;;;;5065694;28;20068;-65
2023/07/27 06:15:53;;;;;;;6.22;3.85;;;13.80;99.90;;;;;;5040462;28;20071;-65
2023/07/27 06:18:18;;;;;;;5.38;3.55;;;13.80;99.90;;;;;;5059003;28;20136;-66
2023/07/27 06:20:44;;;;;;;6.45;3.83;;;13.80;99.90;;;;;;5053336;28;20041;-65
2023/07/27 06:23:10;;;;;;;5.93;3.63;;;13.80;99.90;;;;;;5066770;28;20447;-65
2023/07/27 06:25:35;;;;;;;8.20;4.00;;;13.90;99.90;;;;;;5067629;28;20086;-65
2023/07/27 06:28:01;;;;;;;6.38;3.83;;;13.80;99.90;;;;;;5067420;28;20044;-66
2023/07/27 06:30:27;;;;;;;6.47;3.92;;;13.90;99.90;;;;;;5063282;28;20086;-66
2023/07/27 06:32:53;;;;;;;6.35;3.90;;;13.90;99.90;;;;;;5045909;28;20055;-64
2023/07/27 06:35:19;;;;;;;9.60;3.75;;;14.00;99.90;;;;;;5066675;28;20503;-64
2023/07/27 06:37:44;;;;;;;4.22;3.58;;;14.10;99.90;;;;;;5054866;28;20133;-64
2023/07/27 06:40:13;;;;;;;4.95;3.63;;;14.00;99.90;;;;;;5049036;28;20045;-64
2023/07/27 06:42:39;;;;;;;5.35;4.18;;;14.10;99.90;;;;;;5066976;28;20498;-65
2023/07/27 06:45:05;;;;;;;6.22;4.38;;;14.20;99.90;;;;;;5063884;28;20179;-65
2023/07/27 06:47:31;;;;;;;6.30;4.70;;;14.20;99.90;;;;;;5062214;28;20048;-64
2023/07/27 06:49:57;;;;;;;4.65;3.83;;;14.30;99.90;;;;;;5066537;28;20118;-64
2023/07/27 06:52:23;;;;;;;5.70;3.63;;;14.40;99.90;;;;;;5048338;28;20060;-66
2023/07/27 06:54:48;;;;;;;4.78;3.33;;;14.50;99.90;;;;;;5066398;28;20059;-65
2023/07/27 06:57:14;;;;;;;5.57;3.83;;;14.50;99.90;;;;;;5048517;28;20054;-66
2023/07/27 06:59:40;;;;;;;3.78;3.28;;;14.50;99.90;;;;;;5067271;28;20041;-65
2023/07/27 07:02:06;;;;;;;3.97;3.58;;;14.70;99.90;;;;;;5048207;28;20048;-66
2023/07/27 07:04:31;;;;;;;4.43;3.20;;;14.70;99.90;;;;;;5048564;28;20055;-65
2023/07/27 07:06:57;;;;;;;7.32;3.33;;;14.90;99.90;;;;;;5048445;28;20068;-65
2023/07/27 07:09:23;;;;;;;6.07;3.58;;;14.90;99.90;;;;;;5066293;28;20406;-66
2023/07/27 07:11:49;;;;;;;7.80;3.33;;;15.00;99.90;;;;;;5064627;28;20045;-65
2023/07/27 07:14:14;;;;;;;5.82;3.42;;;14.90;99.90;;;;;;5047295;28;20051;-65
2023/07/27 07:16:40;;;;;;;4.68;3.40;;;15.00;99.90;;;;;;5047321;28;20400;-66
2023/07/27 07:19:06;;;;;;;5.60;4.40;;;15.10;99.90;;;;;;5047221;28;20148;-66
2023/07/27 07:21:32;;;;;;;6.18;4.65;;;15.10;99.90;;;;;;5065377;28;20087;-66
2023/07/27 07:23:57;;;;;;;7.95;3.88;;;15.20;99.90;;;;;;5047864;28;20064;-65
2023/07/27 07:26:24;;;;;;;6.25;4.10;;;15.20;99.90;;;;;;5047817;28;20032;-66
2023/07/27 07:28:49;;;;;;;6.60;4.13;;;15.20;99.90;;;;;;5066336;28;20501;-65
2023/07/27 07:31:15;;;;;;;7.43;4.43;;;15.30;99.90;;;;;;5062710;28;20041;-66
2023/07/27 07:33:41;;;;;;;9.57;3.88;;;15.30;99.90;;;;;;5065564;28;20440;-66
2023/07/27 07:36:07;;;;;;;5.68;4.03;;;15.30;99.90;;;;;;5044291;28;20486;-66
2023/07/27 07:38:33;;;;;;;4.32;3.50;;;15.20;99.90;;;;;;5047590;28;20056;-65
2023/07/27 07:40:58;;;;;;;6.43;4.38;;;15.30;99.90;;;;;;5066009;28;20052;-65
2023/07/27 07:43:24;;;;;;;4.97;4.03;;;15.40;99.90;;;;;;4998949;28;20032;-65
2023/07/27 07:45:50;;;;;;;5.57;3.72;;;15.40;99.90;;;;;;5060386;28;20036;-65
2023/07/27 07:48:16;;;;;;;5.80;4.25;;;15.30;99.90;;;;;;5066334;28;20043;-65
2023/07/27 07:50:41;;;;;;;5.45;3.85;;;15.30;99.90;;;;;;5047958;28;20052;-65
2023/07/27 07:53:07;;;;;;;6.32;3.58;;;15.40;99.90;;;;;;5065484;28;20390;-65
2023/07/27 07:55:36;;;;;;;6.32;3.92;;;15.30;99.90;;;;;;5047506;28;20055;-65
2023/07/27 07:58:03;;;;;;;7.03;4.25;;;15.30;99.90;;;;;;5066078;28;20049;-65
2023/07/27 08:00:29;;;;;;;6.05;3.50;;;15.40;99.90;;;;;;5065647;28;20032;-66
2023/07/27 08:02:54;;;;;;;5.47;3.15;;;15.40;99.90;;;;;;5065093;28;20131;-66
2023/07/27 08:05:20;;;;;;;5.10;3.30;;;15.50;99.90;;;;;;5066981;28;20045;-65
2023/07/27 08:07:47;;;;;;;6.05;2.95;;;15.50;99.90;;;;;;5051300;28;20117;-65
2023/07/27 08:10:12;;;;;;;7.28;3.35;;;15.40;99.90;;;;;;5069296;28;20501;-65
2023/07/27 08:12:38;;;;;;;4.05;2.90;;;15.50;99.90;;;;;;5049351;28;20056;-66
2023/07/27 08:15:05;;;;;;;5.18;3.35;;;15.50;99.90;;;;;;5035787;28;20044;-65
2023/07/27 08:17:31;;;;;;;5.10;3.38;;;15.50;99.90;;;;;;5068914;28;20052;-65
2023/07/27 08:19:57;;;;;;;3.60;3.00;;;15.50;99.90;;;;;;5069747;28;20055;-65
2023/07/27 08:22:23;;;;;;;5.35;2.83;;;15.50;99.90;;;;;;5050721;28;20033;-65
2023/07/27 08:24:50;;;;;;;3.92;3.15;;;15.50;99.90;;;;;;5063894;28;20083;-65
2023/07/27 08:27:16;;;;;;;7.40;3.17;;;15.50;99.90;;;;;;5035264;28;20040;-66
2023/07/27 08:29:41;;;;;;;4.05;3.00;;;15.50;99.90;;;;;;5069317;28;20552;-65
2023/07/27 08:32:07;;;;;;;10.38;3.35;;;15.40;99.90;;;;;;5059585;28;20029;-65
2023/07/27 08:34:33;;;;;;;3.38;2.75;;;15.60;99.90;;;;;;5065760;28;20180;-65
2023/07/27 08:37:00;;;;;;;4.82;2.83;;;15.50;99.90;;;;;;5051249;28;20049;-65
2023/07/27 08:39:26;;;;;;;4.65;2.75;;;15.50;99.90;;;;;;5051138;28;20060;-66
2023/07/27 08:41:52;;;;;;;4.40;2.50;;;15.60;99.90;;;;;;5069340;28;20037;-65
2023/07/27 08:44:18;;;;;;;3.83;2.33;;;15.60;99.90;;;;;;5069484;28;20048;-65
2023/07/27 08:46:46;;;;;;;2.53;2.30;;;15.60;99.90;;;;;;5068989;28;20059;-65
2023/07/27 08:49:14;;;;;;;3.90;2.50;;;15.60;99.90;;;;;;5069675;28;20122;-65
2023/07/27 08:51:45;;;;;;;1.70;1.60;;;15.60;99.90;;;;;;5068326;28;20048;-65
2023/07/27 08:54:12;;;;;;;2.40;1.92;;;15.60;99.90;;;;;;5050661;28;20119;-65
2023/07/27 08:56:38;;;;;;;2.25;1.90;;;15.60;99.90;;;;;;5068030;28;20037;-65
2023/07/27 08:59:04;;;;;;;3.65;2.00;;;15.60;99.90;;;;;;5069144;28;20499;-65
2023/07/27 09:01:31;;;;;;;3.13;1.63;;;15.70;99.90;;;;;;5068448;28;20056;-65
2023/07/27 09:03:57;;;;;;;1.65;1.50;;;15.70;99.90;;;;;;5050430;28;20047;-65
2023/07/27 09:06:45;;;;;;;1.85;1.67;;;15.70;99.90;;;;;;5033957;28;20111;-65
2023/07/27 09:09:18;;;;;;;1.92;1.77;;;15.70;99.90;;;;;;5037977;28;20461;-65
2023/07/27 09:11:46;;;;;;;1.75;1.60;;;15.80;99.90;;;;;;5050136;28;20462;-65
2023/07/27 09:14:18;;;;;;;1.77;1.67;;;15.80;99.90;;;;;;5067695;28;20044;-65
2023/07/27 09:16:44;;;;;;;1.42;1.33;;;15.70;99.90;;;;;;5049384;28;20047;-65
2023/07/27 09:19:12;;;;;;;2.15;1.73;;;15.80;99.90;;;;;;5068610;28;20045;-65
2023/07/27 09:21:44;;;;;;;3.08;1.90;;;15.80;99.90;;;;;;5049902;28;20088;-65
2023/07/27 09:24:14;;;;;;;1.75;1.65;;;15.80;99.90;;;;;;5068297;28;20084;-65
2023/07/27 09:26:57;;;;;;;;;;;15.90;99.90;;;;;;5068412;28;20115;-65
2023/07/27 09:29:23;;;;;;;2.65;1.85;;;15.90;99.90;;;;;;5068484;28;19951;-65
2023/07/27 09:31:57;;;;;;;2.13;1.80;;;16.00;99.90;;;;;;5062447;28;20087;-65
2023/07/27 09:34:23;;;;;;;4.60;1.92;;;16.00;99.90;;;;;;5046186;28;20116;-65
2023/07/27 09:36:49;;;;;;;2.53;1.80;;;16.10;99.90;;;;;;5068251;28;20075;-64
2023/07/27 09:39:16;;;;;;;2.15;1.88;;;16.20;99.90;;;;;;5068867;28;20070;-65
2023/07/27 09:41:44;;;;;;;3.47;1.83;;;16.10;99.90;;;;;;5049888;28;20044;-65
2023/07/27 09:44:27;;;;;;;1.70;1.60;;;16.20;99.90;;;;;;5067935;28;20048;-65
2023/07/27 09:46:53;;;;;;;3.83;1.80;;;16.20;99.90;;;;;;5067692;28;20505;-65
2023/07/27 09:49:20;;;;;;;1.90;1.80;;;16.10;99.90;;;;;;5034091;28;20041;-66
2023/07/27 09:51:48;;;;;;;1.55;1.42;;;16.10;99.90;;;;;;5067965;28;20435;-66
2023/07/27 09:54:14;;;;;;;1.55;1.45;;;16.10;99.90;;;;;;5068312;28;20438;-65
2023/07/27 09:56:40;;;;;;;1.90;1.80;;;16.00;99.90;;;;;;5067279;28;20056;-66
2023/07/27 09:59:07;;;;;;;3.40;1.30;;;16.00;99.90;;;;;;5050264;28;20056;-65
2023/07/27 10:01:33;;;;;;;2.08;1.88;;;16.10;99.90;;;;;;5063754;28;20109;-65
2023/07/27 10:03:59;;;;;;;1.63;1.50;;;16.10;99.90;;;;;;5067110;28;20051;-65
2023/07/27 10:06:26;;;;;;;1.65;1.60;;;16.20;99.90;;;;;;5067586;28;20049;-65
2023/07/27 10:08:54;;;;;;;3.17;1.60;;;16.20;99.90;;;;;;5047376;28;20040;-65
2023/07/27 10:11:49;;;;;;;2.72;1.70;;;16.20;99.90;;;;;;5049331;28;20063;-65
2023/07/27 10:14:19;;;;;;;2.03;1.92;;;16.10;99.90;;;;;;5067195;28;20103;-65
2023/07/27 10:17:02;;;;;;;3.22;1.90;;;16.10;99.90;;;;;;5067314;28;20135;-65
2023/07/27 10:19:45;;;;;;;1.60;1.50;;;16.10;99.90;;;;;;5048448;28;20094;-65
2023/07/27 10:22:13;;;;;;;1.80;1.50;;;16.20;99.90;;;;;;5065240;28;20141;-65
2023/07/27 10:25:05;;;;;;;1.58;1.45;;;16.10;99.90;;;;;;5067313;28;20044;-65
2023/07/27 10:27:58;;;;;;;1.80;1.63;;;16.20;99.90;;;;;;5061089;28;20064;-65
2023/07/27 10:30:23;;;;;;;1.90;1.40;;;16.20;99.90;;;;;;5056237;28;20072;-65
2023/07/27 10:33:25;;;;;;;2.25;1.55;;;16.20;99.90;;;;;;5040589;28;20683;-65
2023/07/27 10:36:02;;;;;;;1.27;1.23;;;16.20;99.90;;;;;;5007522;28;20210;-65
2023/07/27 10:38:31;;;;;;;2.13;1.50;;;16.30;99.90;;;;;;5053658;28;20053;-65
2023/07/27 10:41:14;;;;;;;1.70;1.48;;;16.20;99.90;;;;;;5066401;28;20388;-65
2023/07/27 10:44:07;;;;;;;2.05;1.30;;;16.30;99.90;;;;;;5066991;28;20051;-65
2023/07/27 10:46:38;;;;;;;1.70;1.55;;;16.40;99.90;;;;;;5063899;28;20048;-65
2023/07/27 10:49:08;;;;;;;1.73;1.40;;;16.40;99.90;;;;;;5048208;28;20044;-66
2023/07/27 10:51:34;;;;;;;1.50;1.40;;;16.50;99.90;;;;;;5048067;28;20182;-64
2023/07/27 10:54:00;;;;;;;3.53;1.23;;;16.40;99.90;;;;;;5048453;28;20088;-65
2023/07/27 10:56:27;;;;;;;2.28;1.10;;;16.50;99.90;;;;;;5048343;28;20052;-65
2023/07/27 10:59:00;;;;;;;1.15;1.05;;;16.50;99.90;;;;;;5066632;28;20402;-64
2023/07/27 11:01:32;;;;;;;3.35;1.10;;;16.60;99.90;;;;;;5065635;28;20047;-65
2023/07/27 11:03:58;;;;;;;1.25;1.15;;;16.60;99.90;;;;;;5065568;28;20047;-65
2023/07/27 11:06:28;;;;;;;2.88;1.20;;;16.50;99.90;;;;;;5066514;28;20088;-64
2023/07/27 11:08:55;;;;;;;2.72;1.10;;;16.60;99.90;;;;;;5065923;28;20044;-65
2023/07/27 11:11:24;;;;;;;0.80;0.80;;;16.70;99.90;;;;;;5024031;28;20106;-64
2023/07/27 11:13:50;;;;;;;1.10;1.10;;;16.70;99.90;;;;;;5066276;28;20064;-65
2023/07/27 11:16:17;;;;;;;1.20;1.20;;;16.70;99.90;;;;;;5047941;28;20127;-65
2023/07/27 11:18:43;;;;;;;0.88;0.88;;;16.60;99.90;;;;;;5066011;28;20561;-65
2023/07/27 11:21:10;;;;;;;4.95;0.95;;;16.60;99.90;;;;;;5063045;28;20032;-64
2023/07/27 11:23:43;;;;;;;0.68;0.68;;;16.60;99.90;;;;;;5062844;28;20040;-65
2023/07/27 11:26:09;;;;;;;0.80;0.80;;;16.60;99.90;;;;;;5064038;28;20498;-64
2023/07/27 11:28:35;;;;;;;0.93;0.93;;;16.60;99.90;;;;;;5065595;28;20075;-64
2023/07/27 11:31:04;;;;;;;1.25;0.80;;;16.50;99.90;;;;;;5064116;28;20056;-65
2023/07/27 11:33:37;;;;;;;0.93;0.85;;;16.50;99.90;;;;;;5047150;28;20126;-65
2023/07/27 11:36:07;;;;;;;0.70;0.70;;;16.40;99.90;;;;;;5065343;28;20044;-64
2023/07/27 11:38:33;;;;;;;1.45;1.10;;;16.40;99.90;;;;;;5048546;28;20056;-64
2023/07/27 11:40:59;;;;;;;0.80;0.80;;;16.40;99.90;;;;;;5064650;28;20426;-65
2023/07/27 11:43:26;;;;;;;0.70;0.70;;;16.30;99.90;;;;;;5065379;28;20407;-65
2023/07/27 11:45:56;;;;;;;0.60;0.60;;;16.30;99.90;;;;;;5046129;28;20504;-65
2023/07/27 11:48:29;;;;;;;0.73;0.73;;;16.40;99.90;;;;;;5047967;28;20101;-66
2023/07/27 11:50:59;;;;;;;0.80;0.80;;;16.40;99.90;;;;;;5045060;28;20098;-68
2023/07/27 11:53:27;;;;;;;1.00;0.80;;;16.40;99.90;;;;;;5047678;28;20050;-70
2023/07/27 11:55:54;;;;;;;1.10;0.90;;;16.40;99.90;;;;;;5042573;28;20052;-70
2023/07/27 11:58:29;;;;;;;0.80;0.80;;;16.40;99.90;;;;;;5047932;28;20053;-70
2023/07/27 12:00:55;;;;;;;0.93;0.93;;;16.50;99.90;;;;;;5036826;28;20059;-69
2023/07/27 12:03:24;;;;;;;0.70;0.70;;;16.60;99.90;;;;;;5031065;28;20540;-70
2023/07/27 12:05:54;;;;;;;10.17;1.20;;;16.60;99.90;;;;;;5045314;28;20045;-69
2023/07/27 12:08:21;;;;;;;0.90;0.90;;;16.70;99.90;;;;;;5047582;28;20082;-69
2023/07/27 12:10:51;;;;;;;1.00;1.00;;;16.80;99.90;;;;;;5047558;28;20070;-69
2023/07/27 12:13:21;;;;;;;1.63;0.68;;;16.90;99.90;;;;;;5046799;28;20048;-69
2023/07/27 12:15:58;;;;;;;0.80;0.80;;;16.90;99.90;;;;;;5029546;28;20131;-68
2023/07/27 12:18:26;;;;;;;0.90;0.70;;;17.00;99.90;;;;;;5065554;28;20037;-68
2023/07/27 12:20:54;;;;;;;0.60;0.60;;;16.90;99.90;;;;;;5065525;28;20091;-68
2023/07/27 12:23:20;;;;;;;0.98;0.93;;;16.90;99.90;;;;;;5065557;28;20503;-69
2023/07/27 12:25:47;;;;;;;0.75;0.75;;;16.90;99.90;;;;;;5030713;28;20037;-69
2023/07/27 12:28:13;;;;;;;2.92;0.43;;;16.90;99.90;;;;;;5030285;28;20379;-70
2023/07/27 12:30:38;;;;;;;1.00;0.55;;;16.80;99.90;;;;;;5030706;28;20094;-69
2023/07/27 12:33:04;;;;;;;0.60;0.60;;;16.90;99.90;;;;;;5030077;28;20128;-69
2023/07/27 12:35:30;;;;;;;4.13;0.40;;;17.00;99.90;;;;;;5047216;28;20518;-69
2023/07/27 12:37:58;;;;;;;0.80;0.60;;;17.00;99.90;;;;;;5045982;28;20050;-69
2023/07/27 12:40:24;;;;;;;0.52;0.52;;;17.00;99.90;;;;;;5047351;28;20124;-68
2023/07/27 12:42:51;;;;;;;0.50;0.50;;;17.00;99.90;;;;;;5065373;28;20066;-68
2023/07/27 12:45:19;;;;;;;0.50;0.50;;;16.90;99.90;;;;;;5047312;28;20262;-69
2023/07/27 12:47:48;;;;;;;0.70;0.60;;;16.90;99.90;;;;;;5065667;28;20048;-68
2023/07/27 12:50:15;;;;;;;1.02;0.68;;;17.00;99.90;;;;;;5028463;28;20098;-68
2023/07/27 12:52:42;;;;;;;3.05;0.60;;;17.00;99.90;;;;;;5031791;28;20052;-68